createdAt,value
2018-11-26T00:04:08.206Z,7.80
2018-11-26T00:06:57.552Z,7.70
2018-11-26T00:09:46.879Z,7.80
2018-11-26T00:12:36.195Z,7.80
2018-11-26T00:15:25.555Z,7.80
2018-11-26T00:18:14.884Z,7.80
2018-11-26T00:21:06.662Z,7.80
2018-11-26T00:23:56.436Z,7.70
2018-11-26T00:26:42.874Z,7.70
2018-11-26T00:29:32.159Z,7.70
2018-11-26T00:32:21.478Z,7.80
2018-11-26T00:35:10.807Z,7.70
2018-11-26T00:38:00.150Z,7.70
2018-11-26T00:40:49.432Z,7.80
2018-11-26T00:43:38.755Z,7.70
2018-11-26T00:46:28.062Z,7.80
2018-11-26T00:49:17.373Z,7.80
2018-11-26T00:52:06.660Z,7.70
2018-11-26T00:57:44.462Z,7.70
2018-11-26T01:00:33.767Z,7.80
2018-11-26T01:03:23.099Z,7.80
2018-11-26T01:06:12.428Z,7.80
2018-11-26T01:09:01.760Z,7.80
2018-11-26T01:11:51.105Z,7.80
2018-11-26T01:14:40.417Z,7.80
2018-11-26T01:17:29.723Z,7.80
2018-11-26T01:20:19.027Z,7.70
2018-11-26T01:23:08.355Z,7.60
2018-11-26T01:25:57.663Z,7.70
2018-11-26T01:28:46.938Z,7.50
2018-11-26T01:31:36.229Z,7.50
2018-11-26T01:34:25.574Z,7.60
2018-11-26T01:37:14.887Z,7.60
2018-11-26T01:40:04.268Z,7.60
2018-11-26T01:42:53.562Z,7.60
2018-11-26T01:45:42.866Z,7.70
2018-11-26T01:48:32.186Z,7.60
2018-11-26T01:51:21.474Z,7.50
2018-11-26T01:54:10.829Z,7.40
2018-11-26T01:57:00.123Z,7.50
2018-11-26T01:59:49.426Z,7.50
2018-11-26T02:02:38.722Z,7.50
2018-11-26T02:05:28.019Z,7.50
2018-11-26T02:11:25.799Z,7.50
2018-11-26T02:14:15.093Z,7.20
2018-11-26T02:17:04.395Z,7.20
2018-11-26T02:19:55.563Z,7.40
2018-11-26T02:22:42.980Z,7.50
2018-11-26T02:25:32.271Z,7.60
2018-11-26T02:28:21.569Z,7.50
2018-11-26T02:31:10.866Z,7.50
2018-11-26T02:34:00.178Z,7.50
2018-11-26T02:36:49.553Z,7.50
2018-11-26T02:39:38.853Z,7.50
2018-11-26T02:42:28.123Z,7.60
2018-11-26T02:45:17.459Z,7.60
2018-11-26T02:48:06.762Z,7.60
2018-11-26T02:50:56.044Z,7.30
2018-11-26T02:53:45.366Z,7.40
2018-11-26T02:56:34.661Z,7.40
2018-11-26T02:59:23.970Z,7.50
2018-11-26T03:02:13.282Z,7.50
2018-11-26T03:05:02.607Z,7.50
2018-11-26T03:07:51.890Z,7.40
2018-11-26T03:10:41.211Z,7.50
2018-11-26T03:13:30.481Z,7.40
2018-11-26T03:16:19.795Z,7.40
2018-11-26T03:21:57.592Z,7.30
2018-11-26T03:24:46.883Z,7.30
2018-11-26T03:27:36.186Z,7.40
2018-11-26T03:30:25.488Z,7.40
2018-11-26T03:33:14.800Z,7.30
2018-11-26T03:36:04.078Z,7.40
2018-11-26T03:38:53.756Z,7.40
2018-11-26T03:41:43.062Z,7.50
2018-11-26T03:44:32.369Z,7.50
2018-11-26T03:47:21.674Z,7.40
2018-11-26T03:50:11.374Z,7.40
2018-11-26T03:53:00.670Z,7.40
2018-11-26T03:55:50.007Z,7.50
2018-11-26T03:58:39.270Z,7.50
2018-11-26T04:01:28.592Z,7.50
2018-11-26T04:04:17.912Z,7.30
2018-11-26T04:10:15.717Z,7.30
2018-11-26T04:13:05.002Z,7.30
2018-11-26T04:15:54.290Z,7.40
2018-11-26T04:18:43.604Z,7.20
2018-11-26T04:21:32.925Z,7.40
2018-11-26T04:24:22.209Z,7.50
2018-11-26T04:27:11.508Z,7.30
2018-11-26T04:30:00.824Z,7.30
2018-11-26T04:32:50.110Z,7.30
2018-11-26T04:35:39.416Z,7.40
2018-11-26T04:38:28.721Z,7.30
2018-11-26T04:41:18.006Z,7.30
2018-11-26T04:44:07.305Z,7.30
2018-11-26T04:46:56.623Z,7.30
2018-11-26T04:52:54.420Z,7.30
2018-11-26T04:55:43.749Z,7.40
2018-11-26T04:58:33.035Z,7.40
2018-11-26T05:01:22.346Z,7.30
2018-11-26T05:04:11.655Z,7.30
2018-11-26T05:07:00.976Z,7.20
2018-11-26T05:09:50.259Z,7.30
2018-11-26T05:12:39.583Z,7.30
2018-11-26T05:15:29.073Z,7.30
2018-11-26T05:18:18.394Z,7.30
2018-11-26T05:21:07.685Z,7.30
2018-11-26T05:23:57.003Z,7.40
2018-11-26T05:26:46.295Z,7.40
2018-11-26T05:29:35.611Z,7.40
2018-11-26T05:32:24.930Z,7.40
2018-11-26T05:35:14.263Z,7.40
2018-11-26T05:38:03.590Z,7.30
2018-11-26T05:40:52.899Z,7.30
2018-11-26T05:43:42.202Z,7.30
2018-11-26T05:46:31.518Z,7.30
2018-11-26T05:49:20.825Z,7.30
2018-11-26T05:52:10.130Z,7.30
2018-11-26T05:54:59.446Z,7.40
2018-11-26T05:57:48.758Z,7.50
2018-11-26T06:00:38.080Z,7.40
2018-11-26T06:03:27.375Z,7.50
2018-11-26T06:06:16.691Z,7.50
2018-11-26T06:09:08.369Z,7.50
2018-11-26T06:11:57.668Z,7.50
2018-11-26T06:14:46.974Z,7.50
2018-11-26T06:20:51.495Z,7.50
2018-11-26T06:23:40.843Z,7.40
2018-11-26T06:26:30.166Z,7.40
2018-11-26T06:29:19.478Z,7.40
2018-11-26T06:32:08.836Z,7.40
2018-11-26T06:34:58.095Z,7.40
2018-11-26T06:37:47.385Z,7.40
2018-11-26T06:40:36.734Z,7.50
2018-11-26T06:43:26.011Z,7.50
2018-11-26T06:46:15.316Z,7.50
2018-11-26T06:49:04.649Z,7.50
2018-11-26T06:51:54.019Z,7.40
2018-11-26T06:54:43.332Z,7.40
2018-11-26T06:57:32.644Z,7.40
2018-11-26T07:00:22.060Z,7.40
2018-11-26T07:03:11.357Z,7.40
2018-11-26T07:06:00.681Z,7.50
2018-11-26T07:08:49.990Z,8.00
2018-11-26T07:11:39.302Z,8.10
2018-11-26T07:14:28.601Z,8.30
2018-11-26T07:17:17.968Z,8.30
2018-11-26T07:20:08.857Z,8.20
2018-11-26T07:22:58.258Z,8.10
2018-11-26T07:25:47.564Z,8.00
2018-11-26T07:28:36.859Z,7.90
2018-11-26T07:31:26.155Z,7.90
2018-11-26T07:34:15.481Z,7.80
2018-11-26T07:37:04.807Z,7.80
2018-11-26T07:39:54.146Z,7.90
2018-11-26T07:42:44.234Z,7.90
2018-11-26T07:45:33.571Z,7.80
2018-11-26T07:48:22.886Z,7.80
2018-11-26T07:51:12.187Z,7.80
2018-11-26T07:54:01.486Z,7.80
2018-11-26T07:56:50.788Z,7.90
2018-11-26T07:59:40.105Z,8.00
2018-11-26T08:02:30.465Z,8.00
2018-11-26T08:05:38.731Z,8.00
2018-11-26T08:08:28.062Z,8.10
2018-11-26T08:11:17.380Z,8.00
2018-11-26T08:14:06.675Z,7.90
2018-11-26T08:16:56.054Z,8.00
2018-11-26T08:19:45.402Z,7.90
2018-11-26T08:22:27.770Z,8.00
2018-11-26T08:25:09.926Z,8.00
2018-11-26T08:27:52.394Z,7.90
2018-11-26T08:30:34.701Z,7.90
2018-11-26T08:33:16.628Z,8.00
2018-11-26T08:36:17.493Z,8.00
2018-11-26T08:39:18.014Z,8.10
2018-11-26T08:41:59.536Z,8.10
2018-11-26T08:44:45.136Z,8.10
2018-11-26T08:47:49.056Z,8.10
2018-11-26T08:50:31.080Z,8.10
2018-11-26T08:53:13.408Z,8.00
2018-11-26T08:55:55.047Z,8.10
2018-11-26T08:58:36.865Z,8.20
2018-11-26T09:01:37.258Z,8.10
2018-11-26T09:04:23.792Z,8.10
2018-11-26T09:07:05.272Z,8.10
2018-11-26T09:09:47.502Z,8.10
2018-11-26T09:12:30.374Z,8.10
2018-11-26T09:15:11.148Z,8.00
2018-11-26T09:17:56.045Z,8.00
2018-11-26T09:20:38.031Z,7.90
2018-11-26T09:23:19.480Z,7.90
2018-11-26T09:26:00.978Z,7.60
2018-11-26T09:28:42.540Z,7.40
2018-11-26T09:31:23.932Z,7.70
2018-11-26T09:34:05.437Z,7.90
2018-11-26T09:36:47.171Z,8.00
2018-11-26T09:39:29.123Z,8.10
2018-11-26T09:42:10.587Z,8.20
2018-11-26T09:44:53.841Z,8.00
2018-11-26T09:47:34.574Z,8.10
2018-11-26T09:50:16.494Z,8.20
2018-11-26T09:52:58.104Z,8.30
2018-11-26T09:55:40.341Z,8.30
2018-11-26T09:58:22.257Z,8.30
2018-11-26T10:01:03.707Z,8.30
2018-11-26T10:03:45.573Z,8.30
2018-11-26T10:06:27.430Z,8.40
2018-11-26T10:12:08.295Z,8.30
2018-11-26T10:14:50.468Z,8.10
2018-11-26T10:17:31.971Z,8.10
2018-11-26T10:20:14.228Z,8.10
2018-11-26T10:22:56.271Z,8.30
2018-11-26T10:25:37.809Z,8.40
2018-11-26T10:28:19.454Z,8.50
2018-11-26T10:31:01.588Z,8.60
2018-11-26T10:33:43.298Z,8.60
2018-11-26T10:36:25.371Z,8.60
2018-11-26T10:39:07.676Z,8.60
2018-11-26T10:41:49.968Z,8.50
2018-11-26T10:44:31.671Z,8.50
2018-11-26T10:47:13.202Z,8.50
2018-11-26T10:49:55.138Z,8.50
2018-11-26T10:52:36.699Z,8.50
2018-11-26T10:55:18.477Z,8.50
2018-11-26T10:58:00.089Z,8.50
2018-11-26T11:00:58.278Z,8.40
2018-11-26T11:03:39.910Z,8.30
2018-11-26T11:06:21.896Z,8.40
2018-11-26T11:09:03.495Z,8.40
2018-11-26T11:11:44.995Z,8.30
2018-11-26T11:14:26.421Z,8.20
2018-11-26T11:17:08.434Z,8.20
2018-11-26T11:19:50.713Z,8.10
2018-11-26T11:22:32.285Z,8.00
2018-11-26T11:25:13.702Z,8.10
2018-11-26T11:27:56.426Z,8.10
2018-11-26T11:30:37.820Z,8.20
2018-11-26T11:36:03.504Z,8.30
2018-11-26T11:38:44.074Z,8.40
2018-11-26T11:41:34.570Z,8.40
2018-11-26T11:44:41.359Z,8.30
2018-11-26T11:47:30.659Z,8.30
2018-11-26T11:50:20.835Z,8.40
2018-11-26T11:53:10.155Z,8.30
2018-11-26T11:55:59.440Z,8.10
2018-11-26T11:58:48.779Z,8.10
2018-11-26T12:01:38.089Z,8.00
2018-11-26T12:04:27.412Z,7.80
2018-11-26T12:07:16.703Z,7.70
2018-11-26T12:10:06.218Z,7.70
2018-11-26T12:12:55.529Z,7.70
2018-11-26T12:15:45.689Z,7.80
2018-11-26T12:18:35.050Z,7.80
2018-11-26T12:21:24.371Z,7.80
2018-11-26T12:24:14.201Z,7.70
2018-11-26T12:27:03.551Z,7.70
2018-11-26T12:29:52.849Z,7.60
2018-11-26T12:32:42.172Z,7.60
2018-11-26T12:35:31.528Z,7.60
2018-11-26T12:38:20.862Z,7.60
2018-11-26T12:41:10.166Z,7.60
2018-11-26T12:44:06.740Z,7.70
2018-11-26T12:46:56.064Z,7.70
2018-11-26T12:49:45.373Z,7.70
2018-11-26T12:52:34.700Z,7.70
2018-11-26T12:55:24.316Z,7.70
2018-11-26T12:58:13.629Z,7.70
2018-11-26T13:01:02.966Z,7.70
2018-11-26T13:03:52.280Z,7.70
2018-11-26T13:06:41.598Z,7.80
2018-11-26T13:09:30.910Z,7.80
2018-11-26T13:12:20.259Z,7.70
2018-11-26T13:15:13.296Z,7.70
2018-11-26T13:18:02.622Z,7.60
2018-11-26T13:20:51.954Z,7.70
2018-11-26T13:23:41.256Z,7.70
2018-11-26T13:26:30.581Z,7.70
2018-11-26T13:29:19.924Z,7.60
2018-11-26T13:32:09.235Z,7.60
2018-11-26T13:34:58.557Z,7.60
2018-11-26T13:37:48.279Z,7.50
2018-11-26T13:40:37.257Z,7.50
2018-11-26T13:43:26.568Z,7.50
2018-11-26T13:46:15.893Z,7.60
2018-11-26T13:49:05.193Z,7.60
2018-11-26T13:51:54.519Z,7.70
2018-11-26T13:54:43.850Z,7.60
2018-11-26T13:57:33.191Z,7.50
2018-11-26T14:00:22.500Z,7.50
2018-11-26T14:03:11.818Z,7.50
2018-11-26T14:06:01.180Z,7.60
2018-11-26T14:08:50.507Z,7.60
2018-11-26T14:11:39.872Z,7.40
2018-11-26T14:14:29.167Z,7.40
2018-11-26T14:17:18.496Z,7.50
2018-11-26T14:20:17.484Z,7.40
2018-11-26T14:23:06.950Z,7.40
2018-11-26T14:25:56.287Z,7.40
2018-11-26T14:28:45.603Z,7.40
2018-11-26T14:31:34.895Z,7.50
2018-11-26T14:34:24.230Z,7.50
2018-11-26T14:37:13.548Z,7.40
2018-11-26T14:40:02.874Z,7.30
2018-11-26T14:42:52.201Z,7.30
2018-11-26T14:48:55.886Z,7.30
2018-11-26T14:54:33.739Z,7.30
2018-11-26T14:57:23.049Z,7.20
2018-11-26T15:00:13.032Z,7.30
2018-11-26T15:03:02.359Z,7.20
2018-11-26T15:05:51.665Z,7.20
2018-11-26T15:08:40.948Z,7.20
2018-11-26T15:11:30.294Z,7.30
2018-11-26T15:14:19.592Z,7.20
2018-11-26T15:17:08.925Z,7.20
2018-11-26T15:22:46.767Z,7.10
2018-11-26T15:28:24.600Z,7.20
2018-11-26T15:31:13.904Z,7.30
2018-11-26T15:34:03.240Z,7.20
2018-11-26T15:36:52.547Z,7.20
2018-11-26T15:39:41.862Z,7.10
2018-11-26T15:42:31.168Z,7.20
2018-11-26T15:45:39.482Z,7.20
2018-11-26T15:48:28.798Z,7.10
2018-11-26T15:51:18.096Z,7.10
2018-11-26T15:54:07.438Z,7.10
2018-11-26T15:56:56.738Z,7.20
2018-11-26T15:59:46.094Z,7.20
2018-11-26T16:02:35.393Z,7.30
2018-11-26T16:05:43.676Z,7.30
2018-11-26T16:08:33.016Z,7.30
2018-11-26T16:11:22.350Z,7.30
2018-11-26T16:14:11.717Z,7.30
2018-11-26T16:17:01.086Z,7.30
2018-11-26T16:19:50.441Z,7.30
2018-11-26T16:22:39.753Z,7.30
2018-11-26T16:25:29.207Z,7.30
2018-11-26T16:28:19.380Z,7.30
2018-11-26T16:31:08.698Z,7.20
2018-11-26T16:33:58.075Z,7.10
2018-11-26T16:36:47.364Z,7.00
2018-11-26T16:39:36.672Z,6.90
2018-11-26T16:45:34.478Z,7.10
2018-11-26T16:48:23.806Z,7.10
2018-11-26T16:51:13.194Z,7.10
2018-11-26T16:54:02.650Z,7.10
2018-11-26T16:56:51.996Z,7.10
2018-11-26T16:59:41.378Z,7.00
2018-11-26T17:02:30.686Z,7.00
2018-11-26T17:05:39.380Z,6.90
2018-11-26T17:08:28.686Z,7.00
2018-11-26T17:11:18.031Z,7.10
2018-11-26T17:14:07.363Z,7.10
2018-11-26T17:16:56.723Z,7.10
2018-11-26T17:19:48.439Z,7.00
2018-11-26T17:22:35.399Z,7.00
2018-11-26T17:25:24.767Z,7.00
2018-11-26T17:28:14.112Z,7.00
2018-11-26T17:31:03.425Z,7.10
2018-11-26T17:33:52.778Z,7.10
2018-11-26T17:36:42.097Z,7.10
2018-11-26T17:39:32.593Z,7.10
2018-11-26T17:42:20.801Z,7.10
2018-11-26T17:45:10.942Z,7.10
2018-11-26T17:48:00.598Z,7.10
2018-11-26T17:50:49.930Z,7.10
2018-11-26T17:53:39.301Z,7.10
2018-11-26T17:56:28.619Z,6.90
2018-11-26T17:59:17.982Z,7.00
2018-11-26T18:02:07.494Z,7.00
2018-11-26T18:07:45.671Z,7.00
2018-11-26T18:10:35.029Z,7.00
2018-11-26T18:13:24.347Z,7.00
2018-11-26T18:16:13.672Z,7.00
2018-11-26T18:19:03.009Z,7.10
2018-11-26T18:21:52.421Z,7.10
2018-11-26T18:24:41.743Z,7.10
2018-11-26T18:27:31.090Z,7.00
2018-11-26T18:30:21.222Z,7.10
2018-11-26T18:33:10.564Z,7.10
2018-11-26T18:35:59.915Z,7.10
2018-11-26T18:38:49.278Z,7.20
2018-11-26T18:41:38.607Z,7.10
2018-11-26T18:44:27.933Z,7.10
2018-11-26T18:47:17.253Z,7.10
2018-11-26T18:53:22.701Z,7.10
2018-11-26T18:56:12.060Z,7.10
2018-11-26T18:59:01.397Z,7.10
2018-11-26T19:01:45.155Z,7.10
2018-11-26T19:04:27.374Z,7.10
2018-11-26T19:07:08.875Z,7.00
2018-11-26T19:09:50.267Z,6.90
2018-11-26T19:12:32.415Z,7.00
2018-11-26T19:15:14.259Z,7.00
2018-11-26T19:17:56.575Z,7.10
2018-11-26T19:20:38.427Z,7.00
2018-11-26T19:23:20.515Z,7.00
2018-11-26T19:26:01.995Z,7.00
2018-11-26T19:28:45.487Z,7.00
2018-11-26T19:31:25.340Z,7.10
2018-11-26T19:34:06.804Z,7.10
2018-11-26T19:36:48.611Z,7.10
2018-11-26T19:39:30.439Z,6.90
2018-11-26T19:42:12.806Z,6.90
2018-11-26T19:44:54.671Z,7.00
2018-11-26T19:47:36.282Z,7.00
2018-11-26T19:50:18.454Z,7.00
2018-11-26T19:52:59.916Z,7.00
2018-11-26T19:55:42.241Z,7.00
2018-11-26T19:58:24.337Z,6.90
2018-11-26T20:01:06.308Z,7.00
2018-11-26T20:03:48.069Z,7.00
2018-11-26T20:06:29.914Z,6.90
2018-11-26T20:09:11.452Z,6.90
2018-11-26T20:11:53.635Z,6.90
2018-11-26T20:14:35.962Z,7.00
2018-11-26T20:17:17.412Z,6.80
2018-11-26T20:19:58.860Z,6.90
2018-11-26T20:22:41.143Z,7.00
2018-11-26T20:25:23.089Z,7.00
2018-11-26T20:28:04.553Z,7.00
2018-11-26T20:30:46.396Z,6.90
2018-11-26T20:33:28.363Z,6.90
2018-11-26T20:36:10.220Z,6.80
2018-11-26T20:38:51.852Z,7.00
2018-11-26T20:41:33.260Z,7.00
2018-11-26T20:44:15.062Z,7.00
2018-11-26T20:46:56.984Z,7.00
2018-11-26T20:49:38.895Z,7.00
2018-11-26T20:52:21.166Z,7.00
2018-11-26T20:55:02.610Z,6.90
2018-11-26T20:57:44.278Z,7.00
2018-11-26T21:00:26.037Z,6.90
2018-11-26T21:03:11.428Z,7.00
2018-11-26T21:05:53.736Z,7.00
2018-11-26T21:08:35.376Z,7.00
2018-11-26T21:11:17.618Z,7.00
2018-11-26T21:13:59.355Z,7.00
2018-11-26T21:16:40.895Z,7.00
2018-11-26T21:19:22.439Z,7.00
2018-11-26T21:22:04.387Z,7.00
2018-11-26T21:24:46.053Z,7.00
2018-11-26T21:27:27.587Z,7.10
2018-11-26T21:30:09.218Z,7.00
2018-11-26T21:32:51.362Z,7.00
2018-11-26T21:35:33.661Z,7.00
2018-11-26T21:38:15.742Z,7.00
2018-11-26T21:40:58.105Z,7.00
2018-11-26T21:43:39.314Z,7.00
2018-11-26T21:46:21.391Z,7.00
2018-11-26T21:49:03.167Z,7.00
2018-11-26T21:54:44.030Z,6.90
2018-11-26T21:57:26.188Z,6.80
2018-11-26T22:00:07.838Z,6.90
2018-11-26T22:02:49.331Z,6.90
2018-11-26T22:05:30.280Z,6.90
2018-11-26T22:08:19.586Z,6.80
2018-11-26T22:11:09.168Z,6.80
2018-11-26T22:13:58.287Z,6.80
2018-11-26T22:16:47.614Z,6.70
2018-11-26T22:19:36.960Z,6.80
2018-11-26T22:22:26.294Z,6.80
2018-11-26T22:25:15.599Z,6.80
2018-11-26T22:28:05.536Z,6.80
2018-11-26T22:30:54.839Z,6.80
2018-11-26T22:33:44.160Z,6.90
2018-11-26T22:36:33.515Z,6.90
2018-11-26T22:39:22.860Z,6.90
2018-11-26T22:42:12.198Z,6.90
2018-11-26T22:48:09.049Z,7.00
2018-11-26T22:50:58.418Z,6.90
2018-11-26T22:53:47.724Z,7.00
2018-11-26T22:56:37.087Z,7.00
2018-11-26T22:59:26.423Z,7.10
2018-11-26T23:02:15.759Z,7.00
2018-11-26T23:05:05.270Z,7.10
2018-11-26T23:07:54.599Z,7.10
2018-11-26T23:10:44.032Z,7.00
2018-11-26T23:13:33.396Z,6.90
2018-11-26T23:16:22.757Z,7.00
2018-11-26T23:19:12.120Z,7.00
2018-11-26T23:22:01.496Z,7.00
2018-11-26T23:28:06.191Z,7.10
2018-11-26T23:30:55.517Z,7.10
2018-11-26T23:33:47.284Z,7.00
2018-11-26T23:36:36.688Z,7.00
2018-11-26T23:39:30.988Z,7.00
2018-11-26T23:42:21.650Z,7.00
2018-11-26T23:45:11.516Z,7.00
2018-11-26T23:48:03.330Z,7.00
2018-11-26T23:50:50.209Z,7.00
2018-11-26T23:53:39.533Z,7.00
2018-11-26T23:56:28.854Z,6.90
2018-11-26T23:59:18.387Z,7.00
